createdAt,value
2019-05-10T00:00:45.660Z,4.17
2019-05-10T00:03:32.355Z,4.33
2019-05-10T00:06:28.669Z,3.90
2019-05-10T00:08:56.999Z,4.27
2019-05-10T00:11:48.790Z,3.73
2019-05-10T00:14:30.606Z,3.70
2019-05-10T00:17:08.722Z,4.57
2019-05-10T00:19:37.594Z,4.70
2019-05-10T00:22:06.613Z,3.50
2019-05-10T00:24:35.529Z,4.10
2019-05-10T00:27:04.570Z,4.10
2019-05-10T00:29:33.495Z,3.80
2019-05-10T00:32:02.429Z,3.87
2019-05-10T00:34:31.411Z,4.30
2019-05-10T00:37:00.365Z,3.93
2019-05-10T00:39:31.349Z,3.90
2019-05-10T00:42:05.902Z,4.17
2019-05-10T00:44:34.826Z,4.53
2019-05-10T00:47:03.821Z,3.83
2019-05-10T00:49:32.689Z,3.80
2019-05-10T00:52:01.680Z,4.00
2019-05-10T00:54:30.609Z,3.97
2019-05-10T00:56:59.574Z,3.90
2019-05-10T00:59:28.527Z,4.10
2019-05-10T01:01:57.496Z,4.13
2019-05-10T01:04:26.426Z,4.07
2019-05-10T01:06:56.511Z,3.90
2019-05-10T01:09:25.573Z,3.53
2019-05-10T01:11:56.316Z,3.97
2019-05-10T01:14:33.551Z,4.03
2019-05-10T01:17:02.607Z,3.80
2019-05-10T01:19:31.466Z,3.57
2019-05-10T01:22:00.399Z,3.80
2019-05-10T01:24:29.595Z,3.70
2019-05-10T01:26:58.495Z,4.07
2019-05-10T01:29:27.304Z,4.27
2019-05-10T01:31:56.264Z,4.00
2019-05-10T01:34:25.155Z,3.80
2019-05-10T01:36:54.085Z,4.10
2019-05-10T01:39:41.496Z,4.37
2019-05-10T01:42:11.096Z,4.07
2019-05-10T01:44:40.421Z,3.90
2019-05-10T01:47:09.460Z,4.40
2019-05-10T01:49:38.580Z,4.47
2019-05-10T01:52:07.537Z,4.23
2019-05-10T01:54:36.400Z,4.13
2019-05-10T01:57:05.385Z,4.13
2019-05-10T01:59:34.237Z,4.30
2019-05-10T02:02:03.150Z,4.03
2019-05-10T02:04:32.024Z,3.70
2019-05-10T02:07:00.862Z,4.43
2019-05-10T02:09:37.301Z,4.07
2019-05-10T02:12:06.649Z,4.43
2019-05-10T02:14:35.910Z,4.63
2019-05-10T02:17:05.120Z,3.60
2019-05-10T02:19:34.223Z,4.00
2019-05-10T02:22:03.291Z,4.17
2019-05-10T02:24:32.167Z,4.20
2019-05-10T02:27:01.113Z,4.03
2019-05-10T02:29:30.049Z,4.17
2019-05-10T02:31:59.043Z,3.97
2019-05-10T02:34:27.968Z,3.90
2019-05-10T02:36:56.833Z,4.10
2019-05-10T02:39:36.320Z,3.80
2019-05-10T02:42:01.179Z,4.20
2019-05-10T02:44:30.178Z,4.20
2019-05-10T02:46:59.216Z,4.13
2019-05-10T02:49:28.224Z,3.73
2019-05-10T02:51:57.036Z,3.93
2019-05-10T02:54:26.027Z,4.47
2019-05-10T02:56:55.707Z,4.17
2019-05-10T02:59:25.567Z,4.47
2019-05-10T03:01:56.908Z,4.23
2019-05-10T03:04:27.583Z,4.43
2019-05-10T03:07:09.177Z,4.30
2019-05-10T03:09:40.824Z,4.53
2019-05-10T03:12:25.838Z,4.63
2019-05-10T03:14:58.743Z,4.40
2019-05-10T03:17:28.705Z,5.10
2019-05-10T03:19:59.160Z,4.70
2019-05-10T03:22:28.101Z,4.60
2019-05-10T03:24:57.120Z,4.47
2019-05-10T03:27:26.377Z,4.43
2019-05-10T03:30:05.631Z,4.60
2019-05-10T03:32:34.646Z,4.23
2019-05-10T03:35:03.652Z,4.57
2019-05-10T03:37:32.622Z,4.60
2019-05-10T03:40:02.368Z,5.40
2019-05-10T03:42:31.677Z,4.60
2019-05-10T03:45:00.540Z,4.80
2019-05-10T03:47:29.473Z,4.63
2019-05-10T03:49:58.293Z,4.90
2019-05-10T03:52:27.362Z,4.83
2019-05-10T03:54:56.224Z,5.10
2019-05-10T03:57:25.165Z,5.00
2019-05-10T03:59:54.035Z,5.40
2019-05-10T04:02:22.898Z,5.40
2019-05-10T04:04:51.748Z,5.57
2019-05-10T04:07:20.612Z,7.10
2019-05-10T04:09:49.700Z,6.40
2019-05-10T04:12:18.633Z,7.07
2019-05-10T04:14:49.607Z,7.37
2019-05-10T04:17:18.404Z,8.20
2019-05-10T04:19:47.425Z,8.50
2019-05-10T04:22:16.451Z,9.93
2019-05-10T04:24:45.380Z,10.03
2019-05-10T04:27:30.518Z,10.53
2019-05-10T04:29:46.053Z,12.43
2019-05-10T04:32:14.982Z,13.03
2019-05-10T04:34:46.016Z,12.83
2019-05-10T04:37:14.896Z,14.30
2019-05-10T04:39:43.832Z,15.07
2019-05-10T04:42:12.726Z,14.17
2019-05-10T04:44:41.532Z,14.20
2019-05-10T04:47:10.421Z,14.47
2019-05-10T04:49:39.391Z,15.10
2019-05-10T04:52:08.281Z,15.43
2019-05-10T04:54:37.239Z,16.17
2019-05-10T04:57:06.215Z,15.23
2019-05-10T04:59:47.505Z,16.07
2019-05-10T05:02:22.109Z,16.30
2019-05-10T05:04:52.995Z,15.77
2019-05-10T05:07:36.203Z,17.30
2019-05-10T05:10:20.824Z,17.57
2019-05-10T05:12:53.038Z,17.23
2019-05-10T05:15:22.486Z,18.60
2019-05-10T05:17:55.578Z,18.57
2019-05-10T05:20:27.838Z,17.10
2019-05-10T05:23:11.302Z,17.50
2019-05-10T05:25:40.270Z,16.37
2019-05-10T05:28:10.631Z,17.93
2019-05-10T05:30:39.528Z,18.73
2019-05-10T05:33:08.355Z,18.10
2019-05-10T05:35:37.306Z,18.93
2019-05-10T05:38:06.144Z,19.70
2019-05-10T05:40:36.054Z,19.17
2019-05-10T05:43:08.081Z,19.17
2019-05-10T05:45:35.775Z,19.87
2019-05-10T05:48:39.461Z,18.77
2019-05-10T05:50:55.901Z,20.53
2019-05-10T05:53:24.713Z,20.17
2019-05-10T05:55:53.534Z,20.23
2019-05-10T05:58:27.056Z,19.83
2019-05-10T06:00:53.046Z,19.40
2019-05-10T06:03:27.452Z,19.00
2019-05-10T06:05:52.668Z,19.50
2019-05-10T06:08:25.155Z,18.63
2019-05-10T06:10:57.954Z,18.23
2019-05-10T06:13:30.143Z,18.30
2019-05-10T06:15:55.201Z,18.10
2019-05-10T06:18:24.035Z,17.37
2019-05-10T06:20:55.086Z,16.97
2019-05-10T06:23:29.280Z,18.23
2019-05-10T06:25:54.611Z,17.00
2019-05-10T06:28:28.715Z,17.90
2019-05-10T06:30:54.396Z,17.57
2019-05-10T06:33:23.204Z,18.63
2019-05-10T06:35:52.002Z,18.20
2019-05-10T06:38:20.918Z,17.43
2019-05-10T06:40:49.734Z,16.93
2019-05-10T06:43:18.593Z,17.63
2019-05-10T06:45:52.403Z,18.30
2019-05-10T06:48:26.796Z,18.13
2019-05-10T06:50:56.614Z,19.63
2019-05-10T06:53:25.653Z,19.80
2019-05-10T06:55:54.905Z,19.77
2019-05-10T06:58:24.634Z,19.57
2019-05-10T07:00:55.319Z,18.53
2019-05-10T07:03:24.468Z,17.70
2019-05-10T07:05:53.745Z,19.10
2019-05-10T07:08:22.633Z,15.67
2019-05-10T07:10:51.888Z,15.33
2019-05-10T07:13:21.066Z,17.00
2019-05-10T07:15:50.069Z,14.17
2019-05-10T07:18:22.814Z,14.60
2019-05-10T07:21:00.953Z,12.67
2019-05-10T07:23:30.235Z,12.70
2019-05-10T07:25:59.430Z,11.13
2019-05-10T07:28:28.429Z,10.13
2019-05-10T07:30:57.463Z,9.70
2019-05-10T07:33:26.688Z,9.80
2019-05-10T07:35:55.819Z,8.20
2019-05-10T07:38:30.711Z,7.63
2019-05-10T07:40:55.921Z,7.37
2019-05-10T07:43:35.007Z,7.83
2019-05-10T07:46:06.636Z,7.67
2019-05-10T07:48:35.394Z,8.07
2019-05-10T07:51:04.638Z,8.47
2019-05-10T07:53:38.309Z,8.70
2019-05-10T07:56:08.995Z,7.50
2019-05-10T07:58:42.818Z,7.47
2019-05-10T08:01:12.329Z,6.63
2019-05-10T08:03:48.078Z,6.80
2019-05-10T08:08:39.891Z,6.73
2019-05-10T08:11:08.867Z,6.70
2019-05-10T08:13:39.313Z,6.73
2019-05-10T08:16:11.929Z,6.27
2019-05-10T08:18:39.834Z,7.07
2019-05-10T08:21:20.457Z,7.73
2019-05-10T08:23:41.498Z,8.07
2019-05-10T08:26:20.328Z,7.40
2019-05-10T08:28:44.610Z,7.67
2019-05-10T08:31:12.581Z,7.77
2019-05-10T08:33:44.217Z,7.47
2019-05-10T08:36:12.229Z,7.77
2019-05-10T08:38:47.212Z,7.20
2019-05-10T08:41:16.500Z,6.83
2019-05-10T08:43:42.998Z,6.87
2019-05-10T08:46:12.251Z,7.13
2019-05-10T08:48:46.575Z,6.33
2019-05-10T08:51:12.621Z,6.47
2019-05-10T08:53:42.305Z,6.77
2019-05-10T08:56:13.676Z,7.63
2019-05-10T08:58:42.254Z,7.80
2019-05-10T09:01:23.894Z,7.37
2019-05-10T09:03:42.150Z,8.03
2019-05-10T09:06:16.491Z,8.43
2019-05-10T09:08:43.138Z,8.27
2019-05-10T09:11:12.107Z,8.17
2019-05-10T09:13:45.670Z,8.07
2019-05-10T09:16:13.672Z,8.57
2019-05-10T09:18:46.626Z,8.73
2019-05-10T09:21:14.325Z,9.20
2019-05-10T09:23:43.007Z,8.70
2019-05-10T09:26:16.565Z,8.93
2019-05-10T09:28:42.514Z,8.90
2019-05-10T09:31:18.910Z,9.27
2019-05-10T09:33:49.322Z,7.80
2019-05-10T09:36:12.633Z,6.77
2019-05-10T09:38:43.439Z,6.00
2019-05-10T09:41:12.037Z,5.67
2019-05-10T09:43:48.451Z,5.03
2019-05-10T09:46:14.039Z,5.13
2019-05-10T09:48:44.761Z,5.37
2019-05-10T09:51:13.883Z,5.07
2019-05-10T09:53:42.993Z,5.50
2019-05-10T09:56:11.941Z,5.87
2019-05-10T09:58:40.767Z,5.23
2019-05-10T10:01:17.781Z,4.60
2019-05-10T10:03:43.627Z,3.63
2019-05-10T10:06:11.445Z,3.60
2019-05-10T10:08:43.523Z,3.00
2019-05-10T10:11:15.742Z,2.87
2019-05-10T10:13:43.988Z,2.57
2019-05-10T10:16:14.699Z,3.00
2019-05-10T10:18:42.761Z,3.00
2019-05-10T10:21:13.189Z,2.60
2019-05-10T10:23:42.234Z,3.10
2019-05-10T10:26:12.543Z,3.47
2019-05-10T10:28:41.689Z,3.60
2019-05-10T10:31:25.086Z,3.50
2019-05-10T10:33:43.071Z,3.40
2019-05-10T10:36:11.755Z,3.73
2019-05-10T10:38:45.471Z,3.80
2019-05-10T10:41:11.625Z,3.80
2019-05-10T10:43:40.427Z,4.10
2019-05-10T10:46:12.467Z,3.90
2019-05-10T10:48:43.528Z,3.90
2019-05-10T10:51:10.603Z,3.83
2019-05-10T10:53:39.468Z,3.80
2019-05-10T10:56:08.216Z,3.50
2019-05-10T10:58:37.112Z,2.97
2019-05-10T11:01:10.643Z,2.90
2019-05-10T11:03:40.968Z,2.53
2019-05-10T11:06:09.835Z,2.17
2019-05-10T11:12:06.188Z,2.60
2019-05-10T11:14:39.991Z,2.53
2019-05-10T11:17:05.645Z,2.30
2019-05-10T11:19:34.455Z,2.17
2019-05-10T11:22:09.679Z,2.20
2019-05-10T11:24:33.860Z,2.27
2019-05-10T11:27:17.111Z,2.33
2019-05-10T11:29:43.995Z,1.80
2019-05-10T11:32:16.698Z,1.90
2019-05-10T11:34:44.145Z,1.90
2019-05-10T11:37:16.183Z,2.00
2019-05-10T11:39:46.815Z,2.10
2019-05-10T11:42:15.583Z,2.33
2019-05-10T11:44:49.959Z,2.23
2019-05-10T11:47:25.286Z,2.07
2019-05-10T11:49:45.613Z,1.80
2019-05-10T11:52:14.430Z,2.00
2019-05-10T11:54:43.480Z,1.90
2019-05-10T11:57:13.739Z,2.40
2019-05-10T11:59:42.821Z,2.17
2019-05-10T12:02:32.700Z,2.17
2019-05-10T12:04:43.486Z,1.80
2019-05-10T12:07:13.011Z,2.20
2019-05-10T12:09:42.721Z,2.03
2019-05-10T12:12:12.487Z,1.70
2019-05-10T12:14:43.754Z,1.60
2019-05-10T12:17:24.961Z,1.80
2019-05-10T12:19:56.223Z,1.60
2019-05-10T12:22:32.058Z,1.70
2019-05-10T12:25:20.573Z,2.10
2019-05-10T12:27:30.092Z,2.30
2019-05-10T12:29:59.985Z,1.73
2019-05-10T12:32:27.113Z,2.23
2019-05-10T12:34:57.310Z,2.10
2019-05-10T12:37:26.323Z,2.13
2019-05-10T12:39:55.344Z,2.20
2019-05-10T12:42:24.153Z,2.03
2019-05-10T12:44:55.847Z,2.03
2019-05-10T12:47:24.658Z,2.07
2019-05-10T12:50:01.778Z,2.20
2019-05-10T12:52:28.653Z,2.00
2019-05-10T12:54:55.570Z,2.10
2019-05-10T12:57:27.796Z,2.20
2019-05-10T13:00:12.275Z,2.03
2019-05-10T13:02:51.457Z,1.87
2019-05-10T13:05:30.695Z,2.00
2019-05-10T13:07:58.068Z,1.70
2019-05-10T13:10:53.076Z,1.80
2019-05-10T13:13:31.757Z,1.63
2019-05-10T13:16:09.538Z,1.50
2019-05-10T13:18:52.928Z,1.37
2019-05-10T13:21:19.507Z,1.40
2019-05-10T13:23:53.309Z,1.57
2019-05-10T13:26:25.564Z,1.40
2019-05-10T13:29:08.171Z,1.20
2019-05-10T13:31:42.138Z,1.33
2019-05-10T13:34:34.597Z,1.50
2019-05-10T13:37:06.690Z,1.80
2019-05-10T13:39:39.423Z,1.63
2019-05-10T13:42:12.346Z,1.60
2019-05-10T13:44:43.062Z,1.63
2019-05-10T13:47:13.204Z,1.83
2019-05-10T13:49:42.200Z,1.53
2019-05-10T13:52:18.194Z,1.93
2019-05-10T13:54:47.325Z,1.63
2019-05-10T13:57:16.696Z,1.80
2019-05-10T13:59:48.893Z,1.40
2019-05-10T14:05:30.304Z,1.40
2019-05-10T14:07:59.145Z,1.40
2019-05-10T14:10:28.141Z,1.43
2019-05-10T14:13:02.713Z,1.80
2019-05-10T14:15:27.788Z,1.67
2019-05-10T14:17:56.827Z,1.10
2019-05-10T14:20:27.666Z,1.70
2019-05-10T14:22:58.713Z,1.13
2019-05-10T14:25:29.647Z,1.40
2019-05-10T14:27:57.905Z,1.30
2019-05-10T14:30:27.113Z,1.30
2019-05-10T14:32:56.135Z,1.43
2019-05-10T14:35:28.027Z,1.27
2019-05-10T14:38:07.591Z,1.20
2019-05-10T14:40:30.464Z,1.40
2019-05-10T14:42:58.272Z,1.73
2019-05-10T14:45:27.116Z,1.63
2019-05-10T14:47:56.081Z,1.67
2019-05-10T14:50:28.048Z,1.63
2019-05-10T14:52:55.734Z,1.40
2019-05-10T14:55:27.874Z,1.60
2019-05-10T14:57:55.276Z,1.70
2019-05-10T15:00:24.287Z,1.57
2019-05-10T15:02:56.648Z,1.80
2019-05-10T15:05:23.777Z,1.73
2019-05-10T15:11:33.268Z,1.60
2019-05-10T15:14:02.376Z,1.60
2019-05-10T15:16:31.532Z,1.70
2019-05-10T15:19:00.420Z,1.60
2019-05-10T15:21:34.541Z,1.60
2019-05-10T15:24:03.096Z,1.60
2019-05-10T15:26:37.660Z,1.50
2019-05-10T15:29:02.807Z,1.80
2019-05-10T15:31:31.871Z,1.50
2019-05-10T15:34:04.985Z,1.50
2019-05-10T15:43:04.550Z,1.60
2019-05-10T15:49:06.058Z,1.87
2019-05-10T15:51:36.541Z,1.43
2019-05-10T15:54:07.497Z,1.67
2019-05-10T15:59:07.423Z,1.47
2019-05-10T15:59:23.581Z,1.47
2019-05-10T16:01:36.532Z,1.27
2019-05-10T16:04:05.605Z,1.50
2019-05-10T16:06:37.739Z,1.60
2019-05-10T16:09:16.936Z,1.47
2019-05-10T16:25:48.623Z,1.70
2019-05-10T16:28:20.702Z,1.57
2019-05-10T16:30:54.112Z,1.87
2019-05-10T16:33:25.861Z,1.80
2019-05-10T16:35:55.531Z,1.90
2019-05-10T16:38:25.498Z,1.67
2019-05-10T16:41:00.605Z,1.60
2019-05-10T16:44:01.200Z,1.93
2019-05-10T16:46:38.159Z,1.53
2019-05-10T16:49:10.161Z,1.90
2019-05-10T16:51:42.370Z,1.53
2019-05-10T16:54:33.759Z,1.50
2019-05-10T17:04:00.387Z,1.53
2019-05-10T17:06:28.857Z,1.80
2019-05-10T17:08:58.029Z,1.97
2019-05-10T17:11:26.822Z,1.77
2019-05-10T17:13:55.900Z,1.80
2019-05-10T17:16:24.976Z,1.70
2019-05-10T17:18:55.319Z,1.70
2019-05-10T17:21:24.859Z,1.60
2019-05-10T17:23:53.900Z,1.70
2019-05-10T17:26:34.811Z,1.60
2019-05-10T17:29:07.334Z,1.80
2019-05-10T17:31:39.518Z,1.70
2019-05-10T17:34:05.314Z,1.60
2019-05-10T17:36:34.441Z,1.73
2019-05-10T17:39:04.341Z,1.93
2019-05-10T17:41:41.043Z,1.70
2019-05-10T17:44:11.177Z,1.80
2019-05-10T17:46:40.267Z,1.70
2019-05-10T17:49:09.341Z,1.70
2019-05-10T17:51:38.604Z,1.47
2019-05-10T17:54:07.695Z,1.80
2019-05-10T17:56:38.992Z,1.67
2019-05-10T17:59:12.130Z,1.70
2019-05-10T18:01:40.362Z,1.77
2019-05-10T18:04:09.697Z,1.80
2019-05-10T18:06:38.747Z,1.67
2019-05-10T18:09:07.848Z,1.80
2019-05-10T18:11:42.857Z,1.70
2019-05-10T18:14:12.591Z,1.87
2019-05-10T18:16:41.930Z,1.80
2019-05-10T18:19:10.207Z,1.77
2019-05-10T18:21:39.086Z,1.63
2019-05-10T18:24:07.895Z,2.10
2019-05-10T18:26:39.674Z,1.50
2019-05-10T18:29:07.406Z,1.90
2019-05-10T18:31:36.248Z,2.03
2019-05-10T18:34:05.135Z,1.70
2019-05-10T18:36:51.276Z,2.00
2019-05-10T18:39:09.160Z,2.00
2019-05-10T18:41:41.463Z,1.80
2019-05-10T18:44:08.787Z,2.40
2019-05-10T18:46:39.380Z,2.00
2019-05-10T18:49:08.420Z,2.10
2019-05-10T18:51:37.281Z,1.87
2019-05-10T18:54:06.174Z,2.10
2019-05-10T18:56:35.150Z,2.10
2019-05-10T18:59:07.503Z,2.50
2019-05-10T19:01:38.652Z,2.07
2019-05-10T19:04:14.217Z,2.00
2019-05-10T19:06:44.012Z,2.10
2019-05-10T19:09:09.700Z,2.23
2019-05-10T19:11:40.533Z,2.63
2019-05-10T19:14:09.239Z,1.97
2019-05-10T19:16:38.003Z,2.03
2019-05-10T19:19:07.979Z,2.50
2019-05-10T19:21:37.973Z,2.10
2019-05-10T19:24:07.330Z,1.90
2019-05-10T19:26:36.360Z,2.10
2019-05-10T19:29:06.819Z,1.97
2019-05-10T19:31:37.890Z,2.30
2019-05-10T19:34:09.085Z,2.30
2019-05-10T19:36:37.507Z,2.50
2019-05-10T19:39:07.794Z,2.30
2019-05-10T19:41:37.228Z,2.57
2019-05-10T19:44:06.134Z,2.20
2019-05-10T19:46:39.031Z,2.50
2019-05-10T19:49:07.512Z,2.50
2019-05-10T19:51:36.405Z,2.60
2019-05-10T19:54:05.462Z,2.50
2019-05-10T19:56:36.543Z,2.50
2019-05-10T19:59:10.916Z,3.20
2019-05-10T20:01:35.539Z,2.90
2019-05-10T20:04:04.534Z,3.13
2019-05-10T20:06:33.326Z,2.50
2019-05-10T20:09:02.147Z,2.70
2019-05-10T20:11:31.138Z,2.70
2019-05-10T20:14:00.228Z,2.50
2019-05-10T20:16:29.129Z,4.33
2019-05-10T20:18:57.948Z,5.13
2019-05-10T20:21:40.751Z,6.00
2019-05-10T20:24:11.031Z,6.23
2019-05-10T20:26:40.393Z,5.30
2019-05-10T20:29:11.655Z,5.20
2019-05-10T20:35:08.298Z,4.80
2019-05-10T20:37:37.335Z,4.43
2019-05-10T20:40:06.542Z,4.73
2019-05-10T20:42:35.367Z,4.50
2019-05-10T20:45:08.152Z,4.57
2019-05-10T20:47:35.184Z,3.90
2019-05-10T20:50:04.790Z,3.70
2019-05-10T20:52:33.819Z,3.10
2019-05-10T20:55:39.781Z,3.70
2019-05-10T20:58:08.640Z,3.60
2019-05-10T21:00:37.405Z,3.70
2019-05-10T21:03:06.262Z,3.60
2019-05-10T21:05:35.244Z,3.40
2019-05-10T21:08:16.153Z,3.27
2019-05-10T21:10:34.665Z,3.63
2019-05-10T21:13:03.561Z,3.47
2019-05-10T21:15:33.628Z,3.10
2019-05-10T21:18:02.486Z,3.00
2019-05-10T21:20:31.372Z,2.73
2019-05-10T21:23:00.220Z,3.00
2019-05-10T21:25:29.117Z,2.80
2019-05-10T21:27:58.044Z,3.03
2019-05-10T21:30:27.031Z,3.10
2019-05-10T21:32:56.962Z,2.87
2019-05-10T21:35:25.793Z,3.30
2019-05-10T21:37:54.634Z,3.63
2019-05-10T21:40:23.556Z,3.80
2019-05-10T21:42:58.169Z,3.93
2019-05-10T21:45:33.978Z,3.40
2019-05-10T21:47:59.284Z,3.57
2019-05-10T21:50:28.189Z,3.73
2019-05-10T21:52:57.039Z,3.63
2019-05-10T21:55:25.991Z,3.67
2019-05-10T21:57:56.356Z,4.00
2019-05-10T22:00:28.600Z,3.73
2019-05-10T22:02:57.580Z,3.57
2019-05-10T22:05:26.638Z,4.03
2019-05-10T22:07:55.641Z,4.20
2019-05-10T22:10:24.562Z,3.40
2019-05-10T22:12:54.811Z,3.10
2019-05-10T22:15:25.279Z,3.20
2019-05-10T22:17:54.406Z,3.23
2019-05-10T22:20:23.402Z,3.37
2019-05-10T22:22:52.215Z,3.60
2019-05-10T22:25:22.231Z,3.63
2019-05-10T22:27:51.626Z,3.67
2019-05-10T22:30:20.768Z,3.67
2019-05-10T22:32:49.782Z,3.57
2019-05-10T22:35:18.911Z,3.93
2019-05-10T22:37:48.163Z,3.63
2019-05-10T22:40:17.171Z,4.20
2019-05-10T22:42:46.166Z,4.17
2019-05-10T22:45:15.333Z,4.03
2019-05-10T22:47:44.130Z,4.10
2019-05-10T22:50:13.242Z,4.40
2019-05-10T22:52:42.309Z,4.23
2019-05-10T22:55:11.679Z,4.63
2019-05-10T22:57:40.644Z,4.30
2019-05-10T23:00:10.494Z,4.80
2019-05-10T23:02:39.541Z,4.63
2019-05-10T23:05:08.598Z,4.67
2019-05-10T23:07:37.461Z,4.70
2019-05-10T23:10:07.027Z,4.50
2019-05-10T23:12:35.969Z,4.33
2019-05-10T23:15:05.465Z,4.47
2019-05-10T23:17:40.089Z,5.13
2019-05-10T23:20:09.105Z,4.93
2019-05-10T23:22:38.014Z,4.73
2019-05-10T23:25:07.242Z,4.57
2019-05-10T23:27:36.146Z,4.73
2019-05-10T23:30:06.237Z,5.07
2019-05-10T23:32:35.204Z,5.30
2019-05-10T23:35:04.315Z,4.70
2019-05-10T23:37:33.232Z,5.00
2019-05-10T23:40:04.426Z,4.67
2019-05-10T23:42:33.430Z,4.67
2019-05-10T23:45:02.324Z,4.83
2019-05-10T23:47:31.292Z,4.90
2019-05-10T23:50:00.171Z,4.17
2019-05-10T23:52:29.166Z,5.20
2019-05-10T23:54:57.964Z,4.60
2019-05-10T23:57:26.838Z,4.67
2019-05-10T23:59:55.924Z,5.17
